sensor_id;sensor_type;location;lat;lon;timestamp;P1;durP1;ratioP1;P2;durP2;ratioP2
12088;SDS011;6107;49.078;8.578;2023-03-01T00:01:25;17.43;;;8.77;;
12088;SDS011;6107;49.078;8.578;2023-03-01T00:03:52;18.13;;;9.23;;
12088;SDS011;6107;49.078;8.578;2023-03-01T00:06:19;22.10;;;11.13;;
12088;SDS011;6107;49.078;8.578;2023-03-01T00:08:46;17.97;;;9.60;;
12088;SDS011;6107;49.078;8.578;2023-03-01T00:11:16;19.50;;;9.87;;
12088;SDS011;6107;49.078;8.578;2023-03-01T00:13:44;17.90;;;9.00;;
12088;SDS011;6107;49.078;8.578;2023-03-01T00:16:11;19.10;;;9.10;;
12088;SDS011;6107;49.078;8.578;2023-03-01T00:18:45;19.70;;;9.03;;
12088;SDS011;6107;49.078;8.578;2023-03-01T00:21:10;16.43;;;9.37;;
12088;SDS011;6107;49.078;8.578;2023-03-01T00:23:36;19.50;;;9.63;;
12088;SDS011;6107;49.078;8.578;2023-03-01T00:26:04;18.30;;;9.67;;
12088;SDS011;6107;49.078;8.578;2023-03-01T00:28:31;16.87;;;9.70;;
12088;SDS011;6107;49.078;8.578;2023-03-01T00:31:02;15.20;;;8.87;;
12088;SDS011;6107;49.078;8.578;2023-03-01T00:33:29;17.10;;;8.83;;
12088;SDS011;6107;49.078;8.578;2023-03-01T00:35:54;20.23;;;8.83;;
12088;SDS011;6107;49.078;8.578;2023-03-01T00:38:19;17.50;;;9.30;;
12088;SDS011;6107;49.078;8.578;2023-03-01T00:40:45;15.73;;;8.53;;
12088;SDS011;6107;49.078;8.578;2023-03-01T00:43:10;19.57;;;9.57;;
12088;SDS011;6107;49.078;8.578;2023-03-01T00:45:36;19.07;;;8.57;;
12088;SDS011;6107;49.078;8.578;2023-03-01T00:48:01;16.77;;;9.13;;
12088;SDS011;6107;49.078;8.578;2023-03-01T00:50:27;20.60;;;9.23;;
12088;SDS011;6107;49.078;8.578;2023-03-01T00:52:53;19.53;;;9.37;;
12088;SDS011;6107;49.078;8.578;2023-03-01T00:55:19;17.77;;;8.97;;
12088;SDS011;6107;49.078;8.578;2023-03-01T00:57:45;16.47;;;9.27;;
12088;SDS011;6107;49.078;8.578;2023-03-01T01:00:11;17.33;;;8.73;;
12088;SDS011;6107;49.078;8.578;2023-03-01T01:02:37;16.67;;;9.40;;
12088;SDS011;6107;49.078;8.578;2023-03-01T01:05:03;17.47;;;9.67;;
12088;SDS011;6107;49.078;8.578;2023-03-01T01:07:29;18.07;;;9.73;;
12088;SDS011;6107;49.078;8.578;2023-03-01T01:09:54;18.37;;;9.60;;
12088;SDS011;6107;49.078;8.578;2023-03-01T01:12:20;19.80;;;10.20;;
12088;SDS011;6107;49.078;8.578;2023-03-01T01:14:45;20.83;;;10.33;;
12088;SDS011;6107;49.078;8.578;2023-03-01T01:17:11;19.70;;;10.03;;
12088;SDS011;6107;49.078;8.578;2023-03-01T01:19:36;29.10;;;16.23;;
12088;SDS011;6107;49.078;8.578;2023-03-01T01:22:02;17.63;;;10.07;;
12088;SDS011;6107;49.078;8.578;2023-03-01T01:24:28;15.00;;;8.77;;
12088;SDS011;6107;49.078;8.578;2023-03-01T01:26:53;15.93;;;9.43;;
12088;SDS011;6107;49.078;8.578;2023-03-01T01:29:19;16.97;;;8.73;;
12088;SDS011;6107;49.078;8.578;2023-03-01T01:31:44;19.37;;;9.50;;
12088;SDS011;6107;49.078;8.578;2023-03-01T01:34:14;18.40;;;9.40;;
12088;SDS011;6107;49.078;8.578;2023-03-01T01:36:43;16.20;;;8.97;;
12088;SDS011;6107;49.078;8.578;2023-03-01T01:39:12;17.30;;;9.30;;
12088;SDS011;6107;49.078;8.578;2023-03-01T01:41:38;18.07;;;9.90;;
12088;SDS011;6107;49.078;8.578;2023-03-01T01:44:11;21.23;;;10.53;;
12088;SDS011;6107;49.078;8.578;2023-03-01T01:46:40;18.43;;;9.47;;
12088;SDS011;6107;49.078;8.578;2023-03-01T01:51:43;17.67;;;9.20;;
12088;SDS011;6107;49.078;8.578;2023-03-01T01:54:20;19.77;;;9.97;;
12088;SDS011;6107;49.078;8.578;2023-03-01T01:56:55;20.60;;;9.80;;
12088;SDS011;6107;49.078;8.578;2023-03-01T01:59:25;19.30;;;9.43;;
12088;SDS011;6107;49.078;8.578;2023-03-01T02:01:56;17.70;;;9.43;;
12088;SDS011;6107;49.078;8.578;2023-03-01T02:04:24;19.03;;;9.90;;
12088;SDS011;6107;49.078;8.578;2023-03-01T02:07:23;22.47;;;10.83;;
12088;SDS011;6107;49.078;8.578;2023-03-01T02:09:45;15.80;;;9.27;;
12088;SDS011;6107;49.078;8.578;2023-03-01T02:12:14;20.73;;;10.47;;
12088;SDS011;6107;49.078;8.578;2023-03-01T02:14:42;20.93;;;10.27;;
12088;SDS011;6107;49.078;8.578;2023-03-01T02:17:08;18.27;;;9.73;;
12088;SDS011;6107;49.078;8.578;2023-03-01T02:19:47;18.73;;;10.40;;
12088;SDS011;6107;49.078;8.578;2023-03-01T02:22:35;17.43;;;9.40;;
12088;SDS011;6107;49.078;8.578;2023-03-01T02:25:19;19.50;;;9.60;;
12088;SDS011;6107;49.078;8.578;2023-03-01T02:30:22;17.77;;;9.27;;
12088;SDS011;6107;49.078;8.578;2023-03-01T02:32:49;16.80;;;9.33;;
12088;SDS011;6107;49.078;8.578;2023-03-01T02:35:16;17.83;;;9.43;;
12088;SDS011;6107;49.078;8.578;2023-03-01T02:37:43;16.67;;;9.57;;
12088;SDS011;6107;49.078;8.578;2023-03-01T02:40:11;18.97;;;9.50;;
12088;SDS011;6107;49.078;8.578;2023-03-01T02:42:52;18.23;;;9.30;;
12088;SDS011;6107;49.078;8.578;2023-03-01T02:45:20;17.63;;;9.37;;
12088;SDS011;6107;49.078;8.578;2023-03-01T02:47:46;20.30;;;9.50;;
12088;SDS011;6107;49.078;8.578;2023-03-01T02:50:15;16.67;;;8.60;;
12088;SDS011;6107;49.078;8.578;2023-03-01T02:53:09;20.17;;;9.47;;
12088;SDS011;6107;49.078;8.578;2023-03-01T02:55:41;21.23;;;9.33;;
12088;SDS011;6107;49.078;8.578;2023-03-01T02:58:07;17.53;;;8.47;;
12088;SDS011;6107;49.078;8.578;2023-03-01T03:00:37;18.37;;;9.33;;
12088;SDS011;6107;49.078;8.578;2023-03-01T03:03:10;18.60;;;8.83;;
12088;SDS011;6107;49.078;8.578;2023-03-01T03:05:38;21.10;;;10.37;;
12088;SDS011;6107;49.078;8.578;2023-03-01T03:08:04;16.87;;;9.33;;
12088;SDS011;6107;49.078;8.578;2023-03-01T03:10:31;18.47;;;9.17;;
12088;SDS011;6107;49.078;8.578;2023-03-01T03:13:02;19.37;;;9.50;;
12088;SDS011;6107;49.078;8.578;2023-03-01T03:15:35;16.67;;;8.63;;
12088;SDS011;6107;49.078;8.578;2023-03-01T03:18:01;17.87;;;9.37;;
12088;SDS011;6107;49.078;8.578;2023-03-01T03:20:28;20.77;;;9.10;;
12088;SDS011;6107;49.078;8.578;2023-03-01T03:22:55;18.73;;;9.60;;
12088;SDS011;6107;49.078;8.578;2023-03-01T03:25:23;21.37;;;10.57;;
12088;SDS011;6107;49.078;8.578;2023-03-01T03:27:51;33.93;;;12.70;;
12088;SDS011;6107;49.078;8.578;2023-03-01T03:30:21;37.57;;;16.03;;
12088;SDS011;6107;49.078;8.578;2023-03-01T03:32:49;37.63;;;14.50;;
12088;SDS011;6107;49.078;8.578;2023-03-01T03:35:21;22.97;;;11.20;;
12088;SDS011;6107;49.078;8.578;2023-03-01T03:37:53;21.57;;;9.80;;
12088;SDS011;6107;49.078;8.578;2023-03-01T03:40:46;23.83;;;10.53;;
12088;SDS011;6107;49.078;8.578;2023-03-01T03:43:32;20.07;;;10.03;;
12088;SDS011;6107;49.078;8.578;2023-03-01T03:46:00;19.43;;;10.47;;
12088;SDS011;6107;49.078;8.578;2023-03-01T03:48:30;24.77;;;10.23;;
12088;SDS011;6107;49.078;8.578;2023-03-01T03:50:57;21.83;;;10.93;;
12088;SDS011;6107;49.078;8.578;2023-03-01T03:53:25;25.57;;;11.10;;
12088;SDS011;6107;49.078;8.578;2023-03-01T03:55:52;23.20;;;10.77;;
12088;SDS011;6107;49.078;8.578;2023-03-01T03:58:19;21.17;;;10.13;;
12088;SDS011;6107;49.078;8.578;2023-03-01T04:00:46;20.73;;;10.03;;
12088;SDS011;6107;49.078;8.578;2023-03-01T04:03:15;19.00;;;10.00;;
12088;SDS011;6107;49.078;8.578;2023-03-01T04:05:41;19.07;;;8.97;;
12088;SDS011;6107;49.078;8.578;2023-03-01T04:08:07;23.43;;;9.73;;
12088;SDS011;6107;49.078;8.578;2023-03-01T04:10:44;17.57;;;8.90;;
12088;SDS011;6107;49.078;8.578;2023-03-01T04:13:13;20.60;;;10.60;;
12088;SDS011;6107;49.078;8.578;2023-03-01T04:15:40;18.47;;;10.33;;
12088;SDS011;6107;49.078;8.578;2023-03-01T04:18:08;22.57;;;10.57;;
12088;SDS011;6107;49.078;8.578;2023-03-01T04:20:36;19.27;;;9.70;;
12088;SDS011;6107;49.078;8.578;2023-03-01T04:23:06;21.70;;;10.63;;
12088;SDS011;6107;49.078;8.578;2023-03-01T04:25:56;20.87;;;10.97;;
12088;SDS011;6107;49.078;8.578;2023-03-01T04:28:24;23.13;;;12.20;;
12088;SDS011;6107;49.078;8.578;2023-03-01T04:30:53;26.20;;;12.57;;
12088;SDS011;6107;49.078;8.578;2023-03-01T04:33:20;21.87;;;11.60;;
12088;SDS011;6107;49.078;8.578;2023-03-01T04:35:46;26.37;;;12.13;;
12088;SDS011;6107;49.078;8.578;2023-03-01T04:38:14;62.73;;;25.80;;
12088;SDS011;6107;49.078;8.578;2023-03-01T04:40:41;37.33;;;16.20;;
12088;SDS011;6107;49.078;8.578;2023-03-01T04:43:08;31.70;;;14.03;;
12088;SDS011;6107;49.078;8.578;2023-03-01T04:45:34;29.63;;;11.97;;
12088;SDS011;6107;49.078;8.578;2023-03-01T04:48:00;24.97;;;11.70;;
12088;SDS011;6107;49.078;8.578;2023-03-01T04:50:26;22.20;;;10.67;;
12088;SDS011;6107;49.078;8.578;2023-03-01T04:52:52;27.40;;;11.27;;
12088;SDS011;6107;49.078;8.578;2023-03-01T04:55:18;24.53;;;11.30;;
12088;SDS011;6107;49.078;8.578;2023-03-01T04:57:44;24.40;;;11.80;;
12088;SDS011;6107;49.078;8.578;2023-03-01T05:00:10;28.47;;;12.47;;
12088;SDS011;6107;49.078;8.578;2023-03-01T05:02:50;27.23;;;13.37;;
12088;SDS011;6107;49.078;8.578;2023-03-01T05:05:21;27.90;;;15.00;;
12088;SDS011;6107;49.078;8.578;2023-03-01T05:07:51;22.10;;;12.30;;
12088;SDS011;6107;49.078;8.578;2023-03-01T05:10:17;23.33;;;12.43;;
12088;SDS011;6107;49.078;8.578;2023-03-01T05:12:43;24.80;;;11.83;;
12088;SDS011;6107;49.078;8.578;2023-03-01T05:15:08;25.77;;;12.83;;
12088;SDS011;6107;49.078;8.578;2023-03-01T05:17:34;28.37;;;12.90;;
12088;SDS011;6107;49.078;8.578;2023-03-01T05:20:00;28.43;;;12.33;;
12088;SDS011;6107;49.078;8.578;2023-03-01T05:22:26;20.30;;;11.80;;
12088;SDS011;6107;49.078;8.578;2023-03-01T05:24:52;26.40;;;11.93;;
12088;SDS011;6107;49.078;8.578;2023-03-01T05:27:18;26.00;;;10.90;;
12088;SDS011;6107;49.078;8.578;2023-03-01T05:29:47;22.50;;;10.33;;
12088;SDS011;6107;49.078;8.578;2023-03-01T05:32:12;22.50;;;10.37;;
12088;SDS011;6107;49.078;8.578;2023-03-01T05:34:40;20.97;;;10.03;;
12088;SDS011;6107;49.078;8.578;2023-03-01T05:37:06;21.37;;;10.13;;
12088;SDS011;6107;49.078;8.578;2023-03-01T05:39:32;21.80;;;11.00;;
12088;SDS011;6107;49.078;8.578;2023-03-01T05:41:58;23.80;;;10.57;;
12088;SDS011;6107;49.078;8.578;2023-03-01T05:44:26;20.40;;;10.23;;
12088;SDS011;6107;49.078;8.578;2023-03-01T05:46:53;25.00;;;10.87;;
12088;SDS011;6107;49.078;8.578;2023-03-01T05:49:18;23.10;;;10.90;;
12088;SDS011;6107;49.078;8.578;2023-03-01T05:51:48;24.10;;;11.03;;
12088;SDS011;6107;49.078;8.578;2023-03-01T05:54:16;21.93;;;11.07;;
12088;SDS011;6107;49.078;8.578;2023-03-01T05:56:42;26.43;;;12.03;;
12088;SDS011;6107;49.078;8.578;2023-03-01T05:59:07;21.77;;;11.07;;
12088;SDS011;6107;49.078;8.578;2023-03-01T06:01:33;22.23;;;10.50;;
12088;SDS011;6107;49.078;8.578;2023-03-01T06:03:59;26.30;;;12.17;;
12088;SDS011;6107;49.078;8.578;2023-03-01T06:06:25;22.70;;;11.00;;
12088;SDS011;6107;49.078;8.578;2023-03-01T06:08:51;25.67;;;11.73;;
12088;SDS011;6107;49.078;8.578;2023-03-01T06:11:17;29.10;;;13.43;;
12088;SDS011;6107;49.078;8.578;2023-03-01T06:13:44;32.97;;;15.03;;
12088;SDS011;6107;49.078;8.578;2023-03-01T06:16:12;30.70;;;14.63;;
12088;SDS011;6107;49.078;8.578;2023-03-01T06:18:39;30.53;;;14.23;;
12088;SDS011;6107;49.078;8.578;2023-03-01T06:21:05;31.77;;;15.03;;
12088;SDS011;6107;49.078;8.578;2023-03-01T06:23:32;31.93;;;16.27;;
12088;SDS011;6107;49.078;8.578;2023-03-01T06:25:58;34.70;;;15.80;;
12088;SDS011;6107;49.078;8.578;2023-03-01T06:28:24;32.50;;;16.37;;
12088;SDS011;6107;49.078;8.578;2023-03-01T06:30:50;32.20;;;16.27;;
12088;SDS011;6107;49.078;8.578;2023-03-01T06:33:16;32.73;;;15.20;;
12088;SDS011;6107;49.078;8.578;2023-03-01T06:35:44;30.17;;;14.43;;
12088;SDS011;6107;49.078;8.578;2023-03-01T06:38:11;30.13;;;14.97;;
12088;SDS011;6107;49.078;8.578;2023-03-01T06:40:36;28.20;;;14.40;;
12088;SDS011;6107;49.078;8.578;2023-03-01T06:43:02;30.47;;;14.43;;
12088;SDS011;6107;49.078;8.578;2023-03-01T06:45:28;27.80;;;13.97;;
12088;SDS011;6107;49.078;8.578;2023-03-01T06:48:00;26.83;;;14.17;;
12088;SDS011;6107;49.078;8.578;2023-03-01T06:50:30;25.67;;;14.00;;
12088;SDS011;6107;49.078;8.578;2023-03-01T06:52:56;32.03;;;13.23;;
12088;SDS011;6107;49.078;8.578;2023-03-01T06:55:22;31.13;;;15.10;;
12088;SDS011;6107;49.078;8.578;2023-03-01T06:57:47;34.10;;;15.03;;
12088;SDS011;6107;49.078;8.578;2023-03-01T07:00:13;30.23;;;14.67;;
12088;SDS011;6107;49.078;8.578;2023-03-01T07:02:39;31.47;;;13.67;;
12088;SDS011;6107;49.078;8.578;2023-03-01T07:05:05;29.70;;;13.33;;
12088;SDS011;6107;49.078;8.578;2023-03-01T07:07:31;31.40;;;13.60;;
12088;SDS011;6107;49.078;8.578;2023-03-01T07:09:56;28.20;;;13.70;;
12088;SDS011;6107;49.078;8.578;2023-03-01T07:12:22;28.37;;;14.43;;
12088;SDS011;6107;49.078;8.578;2023-03-01T07:14:48;31.23;;;15.10;;
12088;SDS011;6107;49.078;8.578;2023-03-01T07:17:13;33.37;;;15.43;;
12088;SDS011;6107;49.078;8.578;2023-03-01T07:19:39;27.57;;;14.30;;
12088;SDS011;6107;49.078;8.578;2023-03-01T07:22:04;40.97;;;17.13;;
12088;SDS011;6107;49.078;8.578;2023-03-01T07:24:32;33.00;;;15.10;;
12088;SDS011;6107;49.078;8.578;2023-03-01T07:26:58;46.57;;;19.73;;
12088;SDS011;6107;49.078;8.578;2023-03-01T07:29:24;34.07;;;17.60;;
12088;SDS011;6107;49.078;8.578;2023-03-01T07:31:49;29.13;;;15.93;;
12088;SDS011;6107;49.078;8.578;2023-03-01T07:34:15;28.53;;;13.23;;
12088;SDS011;6107;49.078;8.578;2023-03-01T07:36:40;29.47;;;14.60;;
12088;SDS011;6107;49.078;8.578;2023-03-01T07:39:08;28.93;;;14.80;;
12088;SDS011;6107;49.078;8.578;2023-03-01T07:41:34;42.53;;;20.90;;
12088;SDS011;6107;49.078;8.578;2023-03-01T07:44:00;26.37;;;14.57;;
12088;SDS011;6107;49.078;8.578;2023-03-01T07:46:26;25.60;;;13.90;;
12088;SDS011;6107;49.078;8.578;2023-03-01T07:48:51;26.70;;;12.93;;
12088;SDS011;6107;49.078;8.578;2023-03-01T07:51:48;29.03;;;13.63;;
12088;SDS011;6107;49.078;8.578;2023-03-01T07:54:13;28.83;;;14.40;;
12088;SDS011;6107;49.078;8.578;2023-03-01T07:56:39;24.80;;;13.50;;
12088;SDS011;6107;49.078;8.578;2023-03-01T07:59:05;26.07;;;12.40;;
12088;SDS011;6107;49.078;8.578;2023-03-01T08:01:31;29.70;;;14.13;;
12088;SDS011;6107;49.078;8.578;2023-03-01T08:03:56;27.57;;;14.37;;
12088;SDS011;6107;49.078;8.578;2023-03-01T08:06:22;29.00;;;14.10;;
12088;SDS011;6107;49.078;8.578;2023-03-01T08:08:47;28.50;;;14.73;;
12088;SDS011;6107;49.078;8.578;2023-03-01T08:11:14;30.13;;;14.70;;
12088;SDS011;6107;49.078;8.578;2023-03-01T08:13:40;27.17;;;12.93;;
12088;SDS011;6107;49.078;8.578;2023-03-01T08:16:07;29.50;;;13.27;;
12088;SDS011;6107;49.078;8.578;2023-03-01T08:18:35;26.37;;;13.37;;
12088;SDS011;6107;49.078;8.578;2023-03-01T08:21:22;27.13;;;13.30;;
12088;SDS011;6107;49.078;8.578;2023-03-01T08:23:46;29.40;;;13.97;;
12088;SDS011;6107;49.078;8.578;2023-03-01T08:26:13;25.73;;;12.93;;
12088;SDS011;6107;49.078;8.578;2023-03-01T08:28:40;25.83;;;13.50;;
12088;SDS011;6107;49.078;8.578;2023-03-01T08:31:13;27.17;;;14.10;;
12088;SDS011;6107;49.078;8.578;2023-03-01T08:33:40;27.50;;;13.13;;
12088;SDS011;6107;49.078;8.578;2023-03-01T08:36:06;27.97;;;13.97;;
12088;SDS011;6107;49.078;8.578;2023-03-01T08:38:32;31.17;;;14.27;;
12088;SDS011;6107;49.078;8.578;2023-03-01T08:41:00;25.83;;;12.57;;
12088;SDS011;6107;49.078;8.578;2023-03-01T08:43:26;27.60;;;13.33;;
12088;SDS011;6107;49.078;8.578;2023-03-01T08:45:51;27.33;;;13.73;;
12088;SDS011;6107;49.078;8.578;2023-03-01T08:48:17;28.27;;;13.93;;
12088;SDS011;6107;49.078;8.578;2023-03-01T08:50:42;29.90;;;14.30;;
12088;SDS011;6107;49.078;8.578;2023-03-01T08:53:08;28.30;;;14.13;;
12088;SDS011;6107;49.078;8.578;2023-03-01T08:55:33;29.60;;;13.80;;
12088;SDS011;6107;49.078;8.578;2023-03-01T08:57:59;28.37;;;13.73;;
12088;SDS011;6107;49.078;8.578;2023-03-01T09:00:24;26.93;;;13.53;;
12088;SDS011;6107;49.078;8.578;2023-03-01T09:02:50;28.27;;;13.97;;
12088;SDS011;6107;49.078;8.578;2023-03-01T09:05:15;28.83;;;13.77;;
12088;SDS011;6107;49.078;8.578;2023-03-01T09:07:41;25.23;;;13.77;;
12088;SDS011;6107;49.078;8.578;2023-03-01T09:10:07;24.60;;;13.30;;
12088;SDS011;6107;49.078;8.578;2023-03-01T09:12:33;28.57;;;14.33;;
12088;SDS011;6107;49.078;8.578;2023-03-01T09:14:59;28.00;;;14.40;;
12088;SDS011;6107;49.078;8.578;2023-03-01T09:17:24;27.93;;;14.20;;
12088;SDS011;6107;49.078;8.578;2023-03-01T09:19:50;27.60;;;14.50;;
12088;SDS011;6107;49.078;8.578;2023-03-01T09:22:15;31.90;;;14.77;;
12088;SDS011;6107;49.078;8.578;2023-03-01T09:24:41;27.03;;;13.87;;
12088;SDS011;6107;49.078;8.578;2023-03-01T09:27:06;21.27;;;12.87;;
12088;SDS011;6107;49.078;8.578;2023-03-01T09:29:33;26.53;;;13.77;;
12088;SDS011;6107;49.078;8.578;2023-03-01T09:32:02;27.13;;;14.07;;
12088;SDS011;6107;49.078;8.578;2023-03-01T09:34:28;27.17;;;13.70;;
12088;SDS011;6107;49.078;8.578;2023-03-01T09:36:53;26.57;;;13.77;;
12088;SDS011;6107;49.078;8.578;2023-03-01T09:39:19;26.80;;;13.93;;
12088;SDS011;6107;49.078;8.578;2023-03-01T09:44:27;25.33;;;13.73;;
12088;SDS011;6107;49.078;8.578;2023-03-01T09:47:00;27.10;;;14.73;;
12088;SDS011;6107;49.078;8.578;2023-03-01T09:49:30;26.67;;;14.00;;
12088;SDS011;6107;49.078;8.578;2023-03-01T09:54:25;27.30;;;14.27;;
12088;SDS011;6107;49.078;8.578;2023-03-01T10:02:32;25.07;;;13.97;;
12088;SDS011;6107;49.078;8.578;2023-03-01T10:10:28;27.80;;;15.10;;
12088;SDS011;6107;49.078;8.578;2023-03-01T10:12:58;26.20;;;14.93;;
12088;SDS011;6107;49.078;8.578;2023-03-01T10:15:33;26.03;;;14.07;;
12088;SDS011;6107;49.078;8.578;2023-03-01T10:18:09;30.37;;;15.10;;
12088;SDS011;6107;49.078;8.578;2023-03-01T10:20:45;30.17;;;15.53;;
12088;SDS011;6107;49.078;8.578;2023-03-01T10:23:18;26.83;;;14.97;;
12088;SDS011;6107;49.078;8.578;2023-03-01T10:26:04;30.97;;;16.27;;
12088;SDS011;6107;49.078;8.578;2023-03-01T10:29:08;29.97;;;15.40;;
12088;SDS011;6107;49.078;8.578;2023-03-01T10:31:48;30.23;;;14.43;;
12088;SDS011;6107;49.078;8.578;2023-03-01T10:34:16;28.00;;;14.50;;
12088;SDS011;6107;49.078;8.578;2023-03-01T10:36:48;30.87;;;16.37;;
12088;SDS011;6107;49.078;8.578;2023-03-01T10:39:24;27.53;;;16.47;;
12088;SDS011;6107;49.078;8.578;2023-03-01T10:41:55;24.70;;;14.63;;
12088;SDS011;6107;49.078;8.578;2023-03-01T10:44:44;26.07;;;14.30;;
12088;SDS011;6107;49.078;8.578;2023-03-01T10:47:13;24.37;;;14.77;;
12088;SDS011;6107;49.078;8.578;2023-03-01T10:49:55;24.27;;;14.67;;
12088;SDS011;6107;49.078;8.578;2023-03-01T10:52:27;23.87;;;14.40;;
12088;SDS011;6107;49.078;8.578;2023-03-01T10:54:56;25.83;;;15.20;;
12088;SDS011;6107;49.078;8.578;2023-03-01T10:57:27;28.80;;;16.03;;
12088;SDS011;6107;49.078;8.578;2023-03-01T11:00:05;28.80;;;15.30;;
12088;SDS011;6107;49.078;8.578;2023-03-01T11:02:46;25.97;;;15.57;;
12088;SDS011;6107;49.078;8.578;2023-03-01T11:07:47;24.53;;;14.57;;
12088;SDS011;6107;49.078;8.578;2023-03-01T11:10:25;22.07;;;12.63;;
12088;SDS011;6107;49.078;8.578;2023-03-01T11:13:08;24.43;;;14.33;;
12088;SDS011;6107;49.078;8.578;2023-03-01T11:15:41;24.03;;;14.93;;
12088;SDS011;6107;49.078;8.578;2023-03-01T11:18:20;25.97;;;14.87;;
12088;SDS011;6107;49.078;8.578;2023-03-01T11:20:47;24.27;;;14.03;;
12088;SDS011;6107;49.078;8.578;2023-03-01T11:23:15;25.37;;;14.97;;
12088;SDS011;6107;49.078;8.578;2023-03-01T11:25:42;26.80;;;15.57;;
12088;SDS011;6107;49.078;8.578;2023-03-01T11:28:16;24.40;;;14.87;;
12088;SDS011;6107;49.078;8.578;2023-03-01T11:33:32;22.17;;;14.87;;
12088;SDS011;6107;49.078;8.578;2023-03-01T11:38:55;21.73;;;13.47;;
12088;SDS011;6107;49.078;8.578;2023-03-01T11:41:23;25.03;;;15.30;;
12088;SDS011;6107;49.078;8.578;2023-03-01T11:43:58;25.63;;;15.17;;
12088;SDS011;6107;49.078;8.578;2023-03-01T11:57:55;23.97;;;14.43;;
12088;SDS011;6107;49.078;8.578;2023-03-01T12:03:40;24.57;;;14.80;;
12088;SDS011;6107;49.078;8.578;2023-03-01T12:12:07;22.43;;;14.30;;
12088;SDS011;6107;49.078;8.578;2023-03-01T12:14:50;25.03;;;15.00;;
12088;SDS011;6107;49.078;8.578;2023-03-01T12:17:49;22.23;;;15.43;;
12088;SDS011;6107;49.078;8.578;2023-03-01T12:29:16;24.97;;;14.87;;
12088;SDS011;6107;49.078;8.578;2023-03-01T12:32:01;24.93;;;14.70;;
12088;SDS011;6107;49.078;8.578;2023-03-01T12:41:00;25.67;;;14.60;;
12088;SDS011;6107;49.078;8.578;2023-03-01T12:49:10;23.43;;;14.77;;
12088;SDS011;6107;49.078;8.578;2023-03-01T12:51:39;22.93;;;14.97;;
12088;SDS011;6107;49.078;8.578;2023-03-01T12:54:11;22.33;;;15.00;;
12088;SDS011;6107;49.078;8.578;2023-03-01T12:56:41;22.80;;;14.80;;
12088;SDS011;6107;49.078;8.578;2023-03-01T12:59:16;23.90;;;15.73;;
12088;SDS011;6107;49.078;8.578;2023-03-01T13:02:31;25.07;;;15.63;;
12088;SDS011;6107;49.078;8.578;2023-03-01T13:05:07;20.57;;;13.53;;
12088;SDS011;6107;49.078;8.578;2023-03-01T13:13:22;22.30;;;14.07;;
12088;SDS011;6107;49.078;8.578;2023-03-01T13:15:50;24.47;;;14.60;;
12088;SDS011;6107;49.078;8.578;2023-03-01T13:26:08;24.13;;;15.17;;
12088;SDS011;6107;49.078;8.578;2023-03-01T13:28:53;26.33;;;14.90;;
12088;SDS011;6107;49.078;8.578;2023-03-01T13:41:54;22.63;;;14.70;;
12088;SDS011;6107;49.078;8.578;2023-03-01T13:44:35;20.67;;;14.50;;
12088;SDS011;6107;49.078;8.578;2023-03-01T13:49:35;21.43;;;14.30;;
12088;SDS011;6107;49.078;8.578;2023-03-01T13:57:39;24.00;;;15.03;;
12088;SDS011;6107;49.078;8.578;2023-03-01T14:00:07;22.47;;;14.33;;
12088;SDS011;6107;49.078;8.578;2023-03-01T14:05:58;21.70;;;14.10;;
12088;SDS011;6107;49.078;8.578;2023-03-01T14:08:25;22.43;;;14.60;;
12088;SDS011;6107;49.078;8.578;2023-03-01T14:19:29;23.53;;;15.20;;
12088;SDS011;6107;49.078;8.578;2023-03-01T14:24:49;24.43;;;14.50;;
12088;SDS011;6107;49.078;8.578;2023-03-01T14:27:20;22.80;;;14.60;;
12088;SDS011;6107;49.078;8.578;2023-03-01T14:29:55;23.80;;;14.20;;
12088;SDS011;6107;49.078;8.578;2023-03-01T14:32:29;21.43;;;13.63;;
12088;SDS011;6107;49.078;8.578;2023-03-01T14:34:57;23.20;;;13.50;;
12088;SDS011;6107;49.078;8.578;2023-03-01T14:37:25;21.93;;;14.33;;
12088;SDS011;6107;49.078;8.578;2023-03-01T14:39:51;21.53;;;13.40;;
12088;SDS011;6107;49.078;8.578;2023-03-01T14:42:17;23.33;;;13.73;;
12088;SDS011;6107;49.078;8.578;2023-03-01T14:44:46;26.90;;;14.43;;
12088;SDS011;6107;49.078;8.578;2023-03-01T14:47:16;23.03;;;14.43;;
12088;SDS011;6107;49.078;8.578;2023-03-01T14:50:03;23.63;;;14.63;;
12088;SDS011;6107;49.078;8.578;2023-03-01T14:52:34;23.40;;;14.47;;
12088;SDS011;6107;49.078;8.578;2023-03-01T14:55:03;23.33;;;14.27;;
12088;SDS011;6107;49.078;8.578;2023-03-01T14:57:42;20.27;;;12.93;;
12088;SDS011;6107;49.078;8.578;2023-03-01T15:00:10;23.33;;;13.17;;
12088;SDS011;6107;49.078;8.578;2023-03-01T15:02:44;24.93;;;13.90;;
12088;SDS011;6107;49.078;8.578;2023-03-01T15:05:13;26.73;;;17.07;;
12088;SDS011;6107;49.078;8.578;2023-03-01T15:07:40;29.50;;;15.93;;
12088;SDS011;6107;49.078;8.578;2023-03-01T15:10:19;22.83;;;14.47;;
12088;SDS011;6107;49.078;8.578;2023-03-01T15:12:47;31.23;;;16.80;;
12088;SDS011;6107;49.078;8.578;2023-03-01T15:17:55;21.97;;;12.87;;
12088;SDS011;6107;49.078;8.578;2023-03-01T15:20:27;23.60;;;14.00;;
12088;SDS011;6107;49.078;8.578;2023-03-01T15:22:54;23.30;;;14.63;;
12088;SDS011;6107;49.078;8.578;2023-03-01T15:25:27;25.03;;;13.67;;
12088;SDS011;6107;49.078;8.578;2023-03-01T15:27:55;21.90;;;13.33;;
12088;SDS011;6107;49.078;8.578;2023-03-01T15:30:33;22.17;;;13.63;;
12088;SDS011;6107;49.078;8.578;2023-03-01T15:33:27;19.97;;;13.07;;
12088;SDS011;6107;49.078;8.578;2023-03-01T15:35:56;23.97;;;13.97;;
12088;SDS011;6107;49.078;8.578;2023-03-01T15:38:31;22.13;;;14.20;;
12088;SDS011;6107;49.078;8.578;2023-03-01T15:41:19;23.77;;;13.60;;
12088;SDS011;6107;49.078;8.578;2023-03-01T15:43:51;21.80;;;13.83;;
12088;SDS011;6107;49.078;8.578;2023-03-01T15:46:21;21.50;;;13.43;;
12088;SDS011;6107;49.078;8.578;2023-03-01T15:48:51;20.17;;;12.93;;
12088;SDS011;6107;49.078;8.578;2023-03-01T15:51:26;20.07;;;13.47;;
12088;SDS011;6107;49.078;8.578;2023-03-01T15:53:54;21.17;;;13.47;;
12088;SDS011;6107;49.078;8.578;2023-03-01T15:56:20;21.53;;;13.00;;
12088;SDS011;6107;49.078;8.578;2023-03-01T15:58:46;21.30;;;13.47;;
12088;SDS011;6107;49.078;8.578;2023-03-01T16:01:13;22.37;;;13.47;;
12088;SDS011;6107;49.078;8.578;2023-03-01T16:03:40;21.43;;;13.03;;
12088;SDS011;6107;49.078;8.578;2023-03-01T16:06:07;23.33;;;14.80;;
12088;SDS011;6107;49.078;8.578;2023-03-01T16:08:34;21.80;;;15.13;;
12088;SDS011;6107;49.078;8.578;2023-03-01T16:11:00;20.33;;;13.33;;
12088;SDS011;6107;49.078;8.578;2023-03-01T16:13:29;23.83;;;13.63;;
12088;SDS011;6107;49.078;8.578;2023-03-01T16:15:56;20.50;;;13.47;;
12088;SDS011;6107;49.078;8.578;2023-03-01T16:18:21;23.90;;;13.90;;
12088;SDS011;6107;49.078;8.578;2023-03-01T16:20:47;19.80;;;12.57;;
12088;SDS011;6107;49.078;8.578;2023-03-01T16:23:14;22.03;;;13.43;;
12088;SDS011;6107;49.078;8.578;2023-03-01T16:25:40;25.13;;;14.00;;
12088;SDS011;6107;49.078;8.578;2023-03-01T16:28:06;19.53;;;12.87;;
12088;SDS011;6107;49.078;8.578;2023-03-01T16:30:33;21.93;;;13.60;;
12088;SDS011;6107;49.078;8.578;2023-03-01T16:33:00;27.20;;;15.57;;
12088;SDS011;6107;49.078;8.578;2023-03-01T16:35:26;27.77;;;15.43;;
12088;SDS011;6107;49.078;8.578;2023-03-01T16:37:52;21.60;;;13.27;;
12088;SDS011;6107;49.078;8.578;2023-03-01T16:40:23;21.70;;;12.73;;
12088;SDS011;6107;49.078;8.578;2023-03-01T16:42:52;29.93;;;13.27;;
12088;SDS011;6107;49.078;8.578;2023-03-01T16:45:18;27.40;;;14.70;;
12088;SDS011;6107;49.078;8.578;2023-03-01T16:47:44;26.90;;;14.80;;
12088;SDS011;6107;49.078;8.578;2023-03-01T16:50:10;21.97;;;13.27;;
12088;SDS011;6107;49.078;8.578;2023-03-01T16:52:36;23.77;;;13.90;;